createdAt,value
2018-08-11T00:00:25.929Z,1012.08
2018-08-11T00:01:25.915Z,1012.04
2018-08-11T00:02:25.911Z,1012.01
2018-08-11T00:03:25.889Z,1012.03
2018-08-11T00:04:25.878Z,1011.99
2018-08-11T00:05:25.866Z,1012.04
2018-08-11T00:06:25.862Z,1011.99
2018-08-11T00:07:25.841Z,1012.00
2018-08-11T00:08:25.830Z,1012.01
2018-08-11T00:09:25.821Z,1011.98
2018-08-11T00:10:25.810Z,1012.00
2018-08-11T00:11:25.793Z,1012.00
2018-08-11T00:12:25.781Z,1012.07
2018-08-11T00:13:25.778Z,1011.97
2018-08-11T00:14:25.759Z,1011.99
2018-08-11T00:15:25.750Z,1011.98
2018-08-11T00:16:25.737Z,1011.96
2018-08-11T00:17:25.725Z,1011.94
2018-08-11T00:18:25.711Z,1011.96
2018-08-11T00:19:25.698Z,1011.96
2018-08-11T00:20:25.689Z,1011.95
2018-08-11T00:21:25.674Z,1011.94
2018-08-11T00:22:25.663Z,1011.97
2018-08-11T00:23:25.657Z,1011.96
2018-08-11T00:24:25.637Z,1011.95
2018-08-11T00:25:25.625Z,1011.96
2018-08-11T00:26:25.613Z,1011.96
2018-08-11T00:27:25.599Z,1011.95
2018-08-11T00:28:25.589Z,1011.92
2018-08-11T00:29:25.586Z,1011.93
2018-08-11T00:30:25.573Z,1011.91
2018-08-11T00:31:25.552Z,1011.93
2018-08-11T00:32:25.541Z,1011.92
2018-08-11T00:33:25.530Z,1011.95
2018-08-11T00:34:25.527Z,1012.01
2018-08-11T00:35:25.505Z,1012.01
2018-08-11T00:36:25.554Z,1012.05
2018-08-11T00:37:25.481Z,1012.03
2018-08-11T00:38:25.469Z,1012.04
2018-08-11T00:39:25.462Z,1012.06
2018-08-11T00:40:25.446Z,1012.08
2018-08-11T00:41:25.434Z,1012.08
2018-08-11T00:42:25.422Z,1012.05
2018-08-11T00:43:25.406Z,1012.11
2018-08-11T00:44:25.395Z,1012.05
2018-08-11T00:45:25.383Z,1012.08
2018-08-11T00:46:25.373Z,1012.07
2018-08-11T00:47:25.364Z,1012.10
2018-08-11T00:48:25.355Z,1012.17
2018-08-11T00:49:25.341Z,1012.10
2018-08-11T00:50:25.329Z,1012.15
2018-08-11T00:51:25.312Z,1012.19
2018-08-11T00:52:25.304Z,1012.14
2018-08-11T00:53:25.289Z,1012.18
2018-08-11T00:54:25.277Z,1012.32
2018-08-11T00:55:25.264Z,1012.24
2018-08-11T00:56:25.264Z,1012.22
2018-08-11T00:57:25.240Z,1012.29
2018-08-11T00:58:25.232Z,1012.30
2018-08-11T00:59:25.215Z,1012.32
2018-08-11T01:00:25.205Z,1012.39
2018-08-11T01:01:25.194Z,1012.36
2018-08-11T01:02:25.306Z,1012.45
2018-08-11T01:03:25.168Z,1012.52
2018-08-11T01:04:25.156Z,1012.50
2018-08-11T01:05:25.143Z,1012.62
2018-08-11T01:06:25.134Z,1012.69
2018-08-11T01:07:25.118Z,1012.57
2018-08-11T01:08:25.108Z,1012.55
2018-08-11T01:09:25.104Z,1012.53
2018-08-11T01:10:25.083Z,1012.52
2018-08-11T01:11:25.077Z,1012.56
2018-08-11T01:12:25.058Z,1012.57
2018-08-11T01:13:25.047Z,1012.57
2018-08-11T01:14:25.040Z,1012.59
2018-08-11T01:15:25.020Z,1012.53
2018-08-11T01:16:25.010Z,1012.51
2018-08-11T01:17:24.999Z,1012.57
2018-08-11T01:18:24.983Z,1012.59
2018-08-11T01:19:24.968Z,1012.58
2018-08-11T01:20:24.962Z,1012.61
2018-08-11T01:21:24.946Z,1012.58
2018-08-11T01:22:24.935Z,1012.62
2018-08-11T01:23:24.919Z,1012.63
2018-08-11T01:24:24.906Z,1012.62
2018-08-11T01:25:24.895Z,1012.63
2018-08-11T01:26:24.881Z,1012.62
2018-08-11T01:27:24.866Z,1012.69
2018-08-11T01:28:24.856Z,1012.66
2018-08-11T01:29:24.849Z,1012.63
2018-08-11T01:30:24.835Z,1012.67
2018-08-11T01:31:24.817Z,1012.78
2018-08-11T01:32:24.805Z,1012.82
2018-08-11T01:33:24.792Z,1012.88
2018-08-11T01:34:24.782Z,1012.89
2018-08-11T01:35:24.768Z,1012.94
2018-08-11T01:36:24.757Z,1012.96
2018-08-11T01:37:24.743Z,1013.04
2018-08-11T01:38:24.732Z,1013.09
2018-08-11T01:39:24.720Z,1013.09
2018-08-11T01:40:24.709Z,1013.10
2018-08-11T01:41:24.708Z,1013.08
2018-08-11T01:42:24.681Z,1013.11
2018-08-11T01:43:24.667Z,1013.14
2018-08-11T01:44:24.812Z,1013.09
2018-08-11T01:45:24.640Z,1013.05
2018-08-11T01:46:24.628Z,1013.08
2018-08-11T01:47:24.616Z,1013.14
2018-08-11T01:48:24.603Z,1013.17
2018-08-11T01:49:24.592Z,1013.20
2018-08-11T01:50:24.579Z,1013.26
2018-08-11T01:51:24.562Z,1013.31
2018-08-11T01:52:24.551Z,1013.35
2018-08-11T01:53:24.537Z,1013.37
2018-08-11T01:54:24.523Z,1013.33
2018-08-11T01:55:24.514Z,1013.32
2018-08-11T01:56:24.540Z,1013.26
2018-08-11T01:57:24.485Z,1013.25
2018-08-11T01:58:24.473Z,1013.21
2018-08-11T01:59:24.462Z,1013.12
2018-08-11T02:00:24.449Z,1013.11
2018-08-11T02:01:24.430Z,1013.10
2018-08-11T02:02:24.421Z,1013.11
2018-08-11T02:03:24.405Z,1013.06
2018-08-11T02:04:24.396Z,1013.01
2018-08-11T02:05:24.379Z,1012.94
2018-08-11T02:06:24.366Z,1012.94
2018-08-11T02:07:24.358Z,1012.83
2018-08-11T02:08:24.339Z,1012.87
2018-08-11T02:09:24.326Z,1012.93
2018-08-11T02:10:24.318Z,1012.97
2018-08-11T02:11:24.392Z,1012.92
2018-08-11T02:12:24.294Z,1012.80
2018-08-11T02:13:24.273Z,1012.61
2018-08-11T02:14:24.262Z,1012.43
2018-08-11T02:15:24.247Z,1012.67
2018-08-11T02:16:24.240Z,1012.83
2018-08-11T02:17:24.218Z,1012.76
2018-08-11T02:18:24.209Z,1012.77
2018-08-11T02:19:24.196Z,1012.79
2018-08-11T02:20:24.181Z,1012.83
2018-08-11T02:21:24.163Z,1012.84
2018-08-11T02:22:24.159Z,1012.83
2018-08-11T02:23:24.136Z,1012.79
2018-08-11T02:24:24.124Z,1012.79
2018-08-11T02:25:24.111Z,1012.71
2018-08-11T02:26:24.098Z,1012.71
2018-08-11T02:27:24.083Z,1012.76
2018-08-11T02:28:24.070Z,1012.78
2018-08-11T02:29:24.058Z,1012.88
2018-08-11T02:30:24.042Z,1012.95
2018-08-11T02:31:24.028Z,1013.02
2018-08-11T02:32:24.018Z,1013.01
2018-08-11T02:33:24.001Z,1012.94
2018-08-11T02:34:24.066Z,1012.94
2018-08-11T02:35:23.974Z,1012.92
2018-08-11T02:36:23.961Z,1012.97
2018-08-11T02:37:23.954Z,1012.97
2018-08-11T02:38:23.933Z,1013.00
2018-08-11T02:39:23.916Z,1012.98
2018-08-11T02:40:23.906Z,1012.96
2018-08-11T02:41:23.890Z,1013.01
2018-08-11T02:42:23.877Z,1013.03
2018-08-11T02:43:23.863Z,1013.05
2018-08-11T02:44:23.850Z,1013.02
2018-08-11T02:45:23.834Z,1012.99
2018-08-11T02:46:23.825Z,1012.95
2018-08-11T02:47:23.814Z,1012.91
2018-08-11T02:48:23.791Z,1012.86
2018-08-11T02:49:23.777Z,1012.88
2018-08-11T02:50:23.768Z,1012.84
2018-08-11T02:51:23.752Z,1012.77
2018-08-11T02:52:23.735Z,1012.69
2018-08-11T02:53:23.721Z,1012.71
2018-08-11T02:54:23.712Z,1012.77
2018-08-11T02:55:23.699Z,1012.80
2018-08-11T02:56:23.678Z,1012.78
2018-08-11T02:57:23.664Z,1012.79
2018-08-11T02:58:23.651Z,1012.87
2018-08-11T02:59:23.640Z,1012.89
2018-08-11T03:00:23.624Z,1012.94
2018-08-11T03:01:23.608Z,1012.98
2018-08-11T03:02:23.640Z,1012.97
2018-08-11T03:03:23.583Z,1012.98
2018-08-11T03:04:23.563Z,1013.00
2018-08-11T03:05:23.549Z,1013.01
2018-08-11T03:06:23.536Z,1013.01
2018-08-11T03:07:23.520Z,1012.99
2018-08-11T03:08:23.515Z,1012.97
2018-08-11T03:09:23.494Z,1012.93
2018-08-11T03:10:23.478Z,1012.98
2018-08-11T03:11:23.470Z,1013.00
2018-08-11T03:12:23.448Z,1012.96
2018-08-11T03:13:23.439Z,1012.98
2018-08-11T03:14:23.430Z,1012.95
2018-08-11T03:15:23.408Z,1012.94
2018-08-11T03:16:23.391Z,1012.92
2018-08-11T03:17:23.379Z,1012.95
2018-08-11T03:18:23.363Z,1012.96
2018-08-11T03:19:23.350Z,1013.01
2018-08-11T03:20:23.334Z,1013.00
2018-08-11T03:21:23.322Z,1012.98
2018-08-11T03:22:23.303Z,1013.04
2018-08-11T03:23:23.289Z,1013.11
2018-08-11T03:24:23.276Z,1013.15
2018-08-11T03:25:23.270Z,1013.17
2018-08-11T03:26:23.248Z,1013.23
2018-08-11T03:27:23.236Z,1013.21
2018-08-11T03:28:23.222Z,1013.23
2018-08-11T03:29:23.205Z,1013.27
2018-08-11T03:30:23.190Z,1013.26
2018-08-11T03:31:23.174Z,1013.28
2018-08-11T03:32:23.161Z,1013.32
2018-08-11T03:33:23.146Z,1013.36
2018-08-11T03:34:23.131Z,1013.35
2018-08-11T03:35:23.119Z,1013.37
2018-08-11T03:36:23.104Z,1013.39
2018-08-11T03:37:23.090Z,1013.38
2018-08-11T03:38:23.073Z,1013.39
2018-08-11T03:39:23.064Z,1013.36
2018-08-11T03:40:23.046Z,1013.36
2018-08-11T03:41:23.036Z,1013.35
2018-08-11T03:42:23.016Z,1013.38
2018-08-11T03:43:23.005Z,1013.38
2018-08-11T03:44:22.984Z,1013.42
2018-08-11T03:45:22.976Z,1013.38
2018-08-11T03:46:22.958Z,1013.40
2018-08-11T03:47:22.949Z,1013.42
2018-08-11T03:48:22.932Z,1013.44
2018-08-11T03:49:22.915Z,1013.47
2018-08-11T03:50:22.901Z,1013.46
2018-08-11T03:51:22.885Z,1013.42
2018-08-11T03:52:22.911Z,1013.43
2018-08-11T03:53:22.859Z,1013.42
2018-08-11T03:54:22.846Z,1013.47
2018-08-11T03:55:22.828Z,1013.47
2018-08-11T03:56:22.814Z,1013.47
2018-08-11T03:57:22.806Z,1013.51
2018-08-11T03:58:22.793Z,1013.53
2018-08-11T03:59:22.769Z,1013.49
2018-08-11T04:00:22.755Z,1013.49
2018-08-11T04:01:22.744Z,1013.49
2018-08-11T04:02:22.737Z,1013.50
2018-08-11T04:03:22.710Z,1013.53
2018-08-11T04:04:22.696Z,1013.55
2018-08-11T04:05:22.683Z,1013.59
2018-08-11T04:06:22.672Z,1013.52
2018-08-11T04:07:22.657Z,1013.53
2018-08-11T04:08:22.638Z,1013.57
2018-08-11T04:09:22.623Z,1013.56
2018-08-11T04:10:22.606Z,1013.51
2018-08-11T04:11:22.599Z,1013.48
2018-08-11T04:12:22.595Z,1013.52
2018-08-11T04:13:22.562Z,1013.54
2018-08-11T04:14:22.550Z,1013.50
2018-08-11T04:15:22.532Z,1013.53
2018-08-11T04:16:22.522Z,1013.53
2018-08-11T04:17:22.503Z,1013.56
2018-08-11T04:18:22.492Z,1013.52
2018-08-11T04:19:22.473Z,1013.62
2018-08-11T04:20:22.457Z,1013.58
2018-08-11T04:21:22.444Z,1013.63
2018-08-11T04:22:22.432Z,1013.68
2018-08-11T04:23:22.415Z,1013.72
2018-08-11T04:24:22.399Z,1013.67
2018-08-11T04:25:22.383Z,1013.67
2018-08-11T04:26:22.373Z,1013.64
2018-08-11T04:27:22.356Z,1013.61
2018-08-11T04:28:22.343Z,1013.61
2018-08-11T04:29:22.331Z,1013.58
2018-08-11T04:30:22.310Z,1013.62
2018-08-11T04:31:22.297Z,1013.59
2018-08-11T04:32:22.280Z,1013.58
2018-08-11T04:33:22.267Z,1013.58
2018-08-11T04:34:22.256Z,1013.58
2018-08-11T04:35:22.237Z,1013.58
2018-08-11T04:36:22.223Z,1013.58
2018-08-11T04:37:22.216Z,1013.58
2018-08-11T04:38:22.192Z,1013.59
2018-08-11T04:39:22.176Z,1013.60
2018-08-11T04:40:22.163Z,1013.63
2018-08-11T04:41:22.148Z,1013.60
2018-08-11T04:42:22.133Z,1013.62
2018-08-11T04:43:22.116Z,1013.65
2018-08-11T04:44:22.106Z,1013.66
2018-08-11T04:45:22.091Z,1013.66
2018-08-11T04:46:22.077Z,1013.65
2018-08-11T04:47:22.061Z,1013.67
2018-08-11T04:48:22.043Z,1013.65
2018-08-11T04:49:22.028Z,1013.70
2018-08-11T04:50:22.013Z,1013.72
2018-08-11T04:51:21.998Z,1013.72
2018-08-11T04:52:21.983Z,1013.72
2018-08-11T04:53:21.971Z,1013.76
2018-08-11T04:54:21.958Z,1013.77
2018-08-11T04:55:21.942Z,1013.82
2018-08-11T04:56:21.924Z,1013.80
2018-08-11T04:57:21.910Z,1013.83
2018-08-11T04:58:21.895Z,1013.88
2018-08-11T04:59:21.881Z,1013.85
2018-08-11T05:00:21.864Z,1013.84
2018-08-11T05:01:21.854Z,1013.88
2018-08-11T05:02:21.840Z,1013.87
2018-08-11T05:03:21.823Z,1013.85
2018-08-11T05:04:21.805Z,1013.86
2018-08-11T05:05:21.793Z,1013.89
2018-08-11T05:06:21.777Z,1013.91
2018-08-11T05:07:21.762Z,1013.93
2018-08-11T05:08:21.754Z,1013.99
2018-08-11T05:09:21.734Z,1013.98
2018-08-11T05:10:21.720Z,1013.98
2018-08-11T05:11:21.707Z,1014.02
2018-08-11T05:12:21.692Z,1014.02
2018-08-11T05:13:21.675Z,1014.02
2018-08-11T05:14:21.670Z,1014.05
2018-08-11T05:15:21.648Z,1014.00
2018-08-11T05:16:21.631Z,1014.10
2018-08-11T05:17:21.618Z,1014.09
2018-08-11T05:18:21.606Z,1014.10
2018-08-11T05:19:21.588Z,1014.13
2018-08-11T05:20:21.577Z,1014.16
2018-08-11T05:21:21.567Z,1014.13
2018-08-11T05:22:21.547Z,1014.16
2018-08-11T05:23:21.534Z,1014.08
2018-08-11T05:24:21.514Z,1014.15
2018-08-11T05:25:21.508Z,1014.14
2018-08-11T05:26:21.512Z,1014.14
2018-08-11T05:27:21.472Z,1014.16
2018-08-11T05:28:21.457Z,1014.19
2018-08-11T05:29:21.443Z,1014.17
2018-08-11T05:30:21.431Z,1014.16
2018-08-11T05:31:21.415Z,1014.20
2018-08-11T05:32:21.401Z,1014.18
2018-08-11T05:33:21.414Z,1014.17
2018-08-11T05:34:21.370Z,1014.21
2018-08-11T05:35:21.357Z,1014.20
2018-08-11T05:36:21.341Z,1014.18
2018-08-11T05:37:21.328Z,1014.14
2018-08-11T05:38:21.312Z,1014.17
2018-08-11T05:39:21.302Z,1014.20
2018-08-11T05:40:21.283Z,1014.25
2018-08-11T05:41:21.277Z,1014.27
2018-08-11T05:42:21.255Z,1014.29
2018-08-11T05:43:21.239Z,1014.28
2018-08-11T05:44:21.225Z,1014.30
2018-08-11T05:45:21.217Z,1014.27
2018-08-11T05:46:21.200Z,1014.32
2018-08-11T05:47:21.185Z,1014.32
2018-08-11T05:48:21.173Z,1014.31
2018-08-11T05:49:21.153Z,1014.35
2018-08-11T05:50:21.140Z,1014.37
2018-08-11T05:51:21.124Z,1014.38
2018-08-11T05:52:21.111Z,1014.36
2018-08-11T05:53:21.098Z,1014.40
2018-08-11T05:54:21.086Z,1014.37
2018-08-11T05:55:21.077Z,1014.36
2018-08-11T05:56:21.054Z,1014.36
2018-08-11T05:57:21.044Z,1014.39
2018-08-11T05:58:21.031Z,1014.40
2018-08-11T05:59:21.021Z,1014.41
2018-08-11T06:00:21.000Z,1014.41
2018-08-11T06:01:20.990Z,1014.50
2018-08-11T06:02:20.972Z,1014.48
2018-08-11T06:03:20.959Z,1014.48
2018-08-11T06:04:20.942Z,1014.52
2018-08-11T06:05:20.933Z,1014.56
2018-08-11T06:06:20.916Z,1014.60
2018-08-11T06:07:20.900Z,1014.60
2018-08-11T06:08:20.885Z,1014.55
2018-08-11T06:09:20.873Z,1014.58
2018-08-11T06:10:20.862Z,1014.58
2018-08-11T06:11:20.844Z,1014.63
2018-08-11T06:12:20.831Z,1014.61
2018-08-11T06:13:20.816Z,1014.62
2018-08-11T06:14:20.806Z,1014.64
2018-08-11T06:15:20.795Z,1014.65
2018-08-11T06:16:20.780Z,1014.58
2018-08-11T06:17:20.759Z,1014.63
2018-08-11T06:18:20.755Z,1014.61
2018-08-11T06:19:20.735Z,1014.58
2018-08-11T06:20:20.718Z,1014.62
2018-08-11T06:21:20.711Z,1014.64
2018-08-11T06:22:20.694Z,1014.57
2018-08-11T06:23:20.680Z,1014.57
2018-08-11T06:24:20.664Z,1014.59
2018-08-11T06:25:20.657Z,1014.60
2018-08-11T06:26:20.641Z,1014.59
2018-08-11T06:27:20.620Z,1014.60
2018-08-11T06:28:20.608Z,1014.62
2018-08-11T06:29:20.594Z,1014.63
2018-08-11T06:30:20.585Z,1014.58
2018-08-11T06:31:20.606Z,1014.59
2018-08-11T06:32:20.554Z,1014.65
2018-08-11T06:33:20.542Z,1014.71
2018-08-11T06:34:20.532Z,1014.65
2018-08-11T06:35:20.521Z,1014.66
2018-08-11T06:36:20.502Z,1014.71
2018-08-11T06:37:20.488Z,1014.70
2018-08-11T06:38:20.474Z,1014.69
2018-08-11T06:39:20.463Z,1014.72
2018-08-11T06:40:20.463Z,1014.68
2018-08-11T06:41:20.438Z,1014.71
2018-08-11T06:42:20.424Z,1014.71
2018-08-11T06:43:20.420Z,1014.71
2018-08-11T06:44:20.396Z,1014.73
2018-08-11T06:45:20.383Z,1014.75
2018-08-11T06:46:20.371Z,1014.81
2018-08-11T06:47:20.356Z,1014.81
2018-08-11T06:48:20.349Z,1014.77
2018-08-11T06:49:20.335Z,1014.77
2018-08-11T06:50:20.319Z,1014.74
2018-08-11T06:51:20.309Z,1014.76
2018-08-11T06:52:20.295Z,1014.80
2018-08-11T06:53:20.278Z,1014.77
2018-08-11T06:54:20.268Z,1014.77
2018-08-11T06:55:20.257Z,1014.83
2018-08-11T06:56:20.243Z,1014.80
2018-08-11T06:57:20.231Z,1014.82
2018-08-11T06:58:20.220Z,1014.83
2018-08-11T06:59:20.210Z,1014.81
2018-08-11T07:00:20.198Z,1014.81
2018-08-11T07:01:20.175Z,1014.80
2018-08-11T07:02:20.169Z,1014.83
2018-08-11T07:03:20.153Z,1014.84
2018-08-11T07:04:20.141Z,1014.85
2018-08-11T07:05:20.130Z,1014.90
2018-08-11T07:06:20.112Z,1014.90
2018-08-11T07:07:20.096Z,1014.92
2018-08-11T07:08:20.089Z,1014.93
2018-08-11T07:09:20.077Z,1014.93
2018-08-11T07:10:20.068Z,1014.97
2018-08-11T07:11:20.045Z,1014.94
2018-08-11T07:12:20.039Z,1014.95
2018-08-11T07:13:20.024Z,1014.96
2018-08-11T07:14:20.018Z,1014.94
2018-08-11T07:15:20.001Z,1015.01
2018-08-11T07:16:19.981Z,1014.99
2018-08-11T07:17:19.971Z,1015.05
2018-08-11T07:18:19.958Z,1015.01
2018-08-11T07:19:20.011Z,1015.06
2018-08-11T07:20:19.933Z,1015.04
2018-08-11T07:21:19.928Z,1015.06
2018-08-11T07:22:19.910Z,1015.11
2018-08-11T07:23:19.897Z,1015.00
2018-08-11T07:24:19.884Z,1015.06
2018-08-11T07:25:19.881Z,1015.14
2018-08-11T07:26:19.872Z,1015.07
2018-08-11T07:27:19.848Z,1015.09
2018-08-11T07:28:19.846Z,1015.15
2018-08-11T07:29:19.825Z,1015.09
2018-08-11T07:30:19.884Z,1015.12
2018-08-11T07:31:19.796Z,1015.13
2018-08-11T07:32:19.785Z,1015.10
2018-08-11T07:33:19.859Z,1015.10
2018-08-11T07:34:19.765Z,1015.19
2018-08-11T07:35:19.792Z,1015.29
2018-08-11T07:36:19.918Z,1015.44
2018-08-11T07:37:19.728Z,1015.53
2018-08-11T07:38:19.719Z,1015.68
2018-08-11T07:39:19.709Z,1015.69
2018-08-11T07:40:19.699Z,1015.81
2018-08-11T07:41:19.695Z,1015.86
2018-08-11T07:42:19.679Z,1015.83
2018-08-11T07:43:19.737Z,1015.95
2018-08-11T07:44:19.664Z,1015.29
2018-08-11T07:45:19.655Z,1015.86
2018-08-11T07:46:19.651Z,1015.84
2018-08-11T07:47:19.642Z,1015.84
2018-08-11T07:48:19.635Z,1015.89
2018-08-11T07:49:19.627Z,1015.89
2018-08-11T07:50:19.676Z,1015.93
2018-08-11T07:51:19.616Z,1015.88
2018-08-11T07:52:19.607Z,1015.90
2018-08-11T07:53:19.602Z,1016.01
2018-08-11T07:54:19.596Z,1015.45
2018-08-11T07:55:19.591Z,1015.28
2018-08-11T07:56:19.589Z,1015.26
2018-08-11T07:57:19.581Z,1015.47
2018-08-11T07:58:19.581Z,1015.81
2018-08-11T07:59:19.568Z,1015.38
2018-08-11T08:00:19.570Z,1015.41
2018-08-11T08:01:19.582Z,1015.82
2018-08-11T08:02:19.553Z,1016.12
2018-08-11T08:03:19.548Z,1016.13
2018-08-11T08:04:19.546Z,1016.13
2018-08-11T08:05:19.547Z,1015.98
2018-08-11T08:06:19.536Z,1016.14
2018-08-11T08:07:19.532Z,1015.41
2018-08-11T08:08:19.529Z,1016.12
2018-08-11T08:09:19.519Z,1016.18
2018-08-11T08:10:19.515Z,1016.18
2018-08-11T08:11:19.510Z,1016.21
2018-08-11T08:12:19.512Z,1015.90
2018-08-11T08:13:19.505Z,1015.38
2018-08-11T08:14:19.508Z,1016.19
2018-08-11T08:15:19.497Z,1015.63
2018-08-11T08:16:19.498Z,1015.42
2018-08-11T08:17:19.491Z,1016.25
2018-08-11T08:18:19.486Z,1016.28
2018-08-11T08:19:19.488Z,1016.27
2018-08-11T08:20:19.481Z,1015.79
2018-08-11T08:21:19.486Z,1015.45
2018-08-11T08:22:19.477Z,1016.26
2018-08-11T08:23:19.469Z,1016.38
2018-08-11T08:24:19.468Z,1015.61
2018-08-11T08:25:19.477Z,1015.60
2018-08-11T08:26:19.660Z,1015.52
2018-08-11T08:27:19.457Z,1016.31
2018-08-11T08:28:19.454Z,1016.36
2018-08-11T08:29:19.465Z,1016.40
2018-08-11T08:30:19.448Z,1015.51
2018-08-11T08:31:19.444Z,1015.54
2018-08-11T08:32:19.437Z,1015.90
2018-08-11T08:33:19.433Z,1015.53
2018-08-11T08:34:19.425Z,1015.65
2018-08-11T08:35:19.425Z,1015.61
2018-08-11T08:36:19.416Z,1016.33
2018-08-11T08:37:19.414Z,1015.65
2018-08-11T08:38:19.404Z,1015.74
2018-08-11T08:39:19.400Z,1015.53
2018-08-11T08:40:19.398Z,1016.51
2018-08-11T08:41:19.388Z,1015.64
2018-08-11T08:42:19.392Z,1015.53
2018-08-11T08:43:19.378Z,1015.56
2018-08-11T08:44:19.377Z,1015.73
2018-08-11T08:45:19.366Z,1015.53
2018-08-11T08:46:19.370Z,1015.52
2018-08-11T08:47:19.356Z,1016.00
2018-08-11T08:48:19.345Z,1016.46
2018-08-11T08:49:19.344Z,1016.15
2018-08-11T08:50:19.333Z,1015.53
2018-08-11T08:51:19.329Z,1015.56
2018-08-11T08:52:19.317Z,1015.49
2018-08-11T08:53:19.332Z,1015.47
2018-08-11T08:54:19.307Z,1015.50
2018-08-11T08:55:19.304Z,1015.60
2018-08-11T08:56:19.292Z,1015.65
2018-08-11T08:57:19.284Z,1015.54
2018-08-11T08:58:19.278Z,1015.56
2018-08-11T08:59:19.266Z,1016.44
2018-08-11T09:00:19.260Z,1016.45
2018-08-11T09:01:19.276Z,1015.56
2018-08-11T09:02:19.250Z,1015.58
2018-08-11T09:03:19.241Z,1015.59
2018-08-11T09:04:19.233Z,1016.43
2018-08-11T09:05:19.221Z,1016.48
2018-08-11T09:06:19.220Z,1016.40
2018-08-11T09:07:19.208Z,1016.45
2018-08-11T09:08:19.208Z,1016.41
2018-08-11T09:09:19.197Z,1016.51
2018-08-11T09:10:19.192Z,1016.46
2018-08-11T09:11:19.185Z,1016.45
2018-08-11T09:12:19.186Z,1016.32
2018-08-11T09:13:19.177Z,1016.26
2018-08-11T09:14:19.175Z,1016.34
2018-08-11T09:15:19.170Z,1015.58
2018-08-11T09:16:19.170Z,1016.34
2018-08-11T09:17:19.164Z,1015.57
2018-08-11T09:18:19.170Z,1015.59
2018-08-11T09:19:19.182Z,1016.19
2018-08-11T09:20:19.150Z,1016.26
2018-08-11T09:21:19.149Z,1016.17
2018-08-11T09:22:19.144Z,1015.87
2018-08-11T09:23:19.142Z,1015.97
2018-08-11T09:24:19.137Z,1016.18
2018-08-11T09:25:19.133Z,1016.23
2018-08-11T09:26:19.137Z,1016.15
2018-08-11T09:27:19.126Z,1016.02
2018-08-11T09:28:19.126Z,1015.62
2018-08-11T09:29:19.170Z,1016.18
2018-08-11T09:30:19.112Z,1016.12
2018-08-11T09:31:19.108Z,1016.10
2018-08-11T09:32:19.114Z,1016.11
2018-08-11T09:33:19.099Z,1016.10
2018-08-11T09:34:19.099Z,1016.00
2018-08-11T09:35:19.093Z,1016.07
2018-08-11T09:36:19.088Z,1016.04
2018-08-11T09:37:19.083Z,1016.11
2018-08-11T09:38:19.129Z,1016.01
2018-08-11T09:39:19.076Z,1015.62
2018-08-11T09:40:19.074Z,1015.59
2018-08-11T09:41:19.069Z,1015.72
2018-08-11T09:42:19.070Z,1015.95
2018-08-11T09:43:19.062Z,1015.95
2018-08-11T09:44:19.059Z,1015.88
2018-08-11T09:45:19.052Z,1015.88
2018-08-11T09:46:19.048Z,1015.94
2018-08-11T09:47:19.046Z,1015.93
2018-08-11T09:48:19.046Z,1015.82
2018-08-11T09:49:19.042Z,1015.61
2018-08-11T09:50:19.027Z,1015.58
2018-08-11T09:51:19.024Z,1015.87
2018-08-11T09:52:19.094Z,1015.97
2018-08-11T09:53:19.012Z,1015.90
2018-08-11T09:54:19.005Z,1015.87
2018-08-11T09:55:19.000Z,1015.78
2018-08-11T09:56:18.994Z,1015.68
2018-08-11T09:57:18.994Z,1015.68
2018-08-11T09:58:18.984Z,1015.82
2018-08-11T09:59:18.981Z,1015.66
2018-08-11T10:00:18.974Z,1015.73
2018-08-11T10:01:18.963Z,1015.70
2018-08-11T10:02:18.960Z,1015.80
2018-08-11T10:03:18.950Z,1015.84
2018-08-11T10:04:18.944Z,1015.81
2018-08-11T10:05:18.939Z,1015.86
2018-08-11T10:06:18.930Z,1015.79
2018-08-11T10:07:18.929Z,1015.80
2018-08-11T10:08:18.920Z,1015.81
2018-08-11T10:09:18.916Z,1015.78
2018-08-11T10:10:18.906Z,1015.75
2018-08-11T10:11:18.903Z,1015.76
2018-08-11T10:12:18.891Z,1015.70
2018-08-11T10:13:18.884Z,1015.69
2018-08-11T10:14:18.882Z,1015.70
2018-08-11T10:15:18.880Z,1015.69
2018-08-11T10:16:18.864Z,1015.51
2018-08-11T10:17:18.858Z,1015.68
2018-08-11T10:18:18.850Z,1015.67
2018-08-11T10:19:18.842Z,1015.54
2018-08-11T10:20:18.846Z,1015.64
2018-08-11T10:21:18.848Z,1015.59
2018-08-11T10:22:18.829Z,1015.50
2018-08-11T10:23:18.821Z,1015.65
2018-08-11T10:24:18.808Z,1015.56
2018-08-11T10:25:18.811Z,1015.50
2018-08-11T10:26:18.793Z,1015.52
2018-08-11T10:27:18.787Z,1015.59
2018-08-11T10:28:18.780Z,1015.74
2018-08-11T10:29:18.777Z,1015.67
2018-08-11T10:30:18.765Z,1015.64
2018-08-11T10:31:18.756Z,1015.62
2018-08-11T10:32:18.752Z,1015.61
2018-08-11T10:33:18.742Z,1015.61
2018-08-11T10:34:18.735Z,1015.73
2018-08-11T10:35:18.729Z,1015.60
2018-08-11T10:36:18.721Z,1015.51
2018-08-11T10:37:18.711Z,1015.69
2018-08-11T10:38:18.704Z,1015.61
2018-08-11T10:39:18.698Z,1015.52
2018-08-11T10:40:18.739Z,1015.57
2018-08-11T10:41:18.690Z,1015.79
2018-08-11T10:42:18.672Z,1015.54
2018-08-11T10:43:18.666Z,1015.58
2018-08-11T10:44:18.656Z,1015.57
2018-08-11T10:45:18.655Z,1015.56
2018-08-11T10:46:18.640Z,1015.51
2018-08-11T10:47:18.634Z,1015.49
2018-08-11T10:48:18.625Z,1015.60
2018-08-11T10:49:18.624Z,1015.54
2018-08-11T10:50:18.608Z,1015.52
2018-08-11T10:51:18.598Z,1015.56
2018-08-11T10:52:18.592Z,1015.52
2018-08-11T10:53:18.582Z,1015.65
2018-08-11T10:54:18.573Z,1015.50
2018-08-11T10:55:18.572Z,1015.56
2018-08-11T10:56:18.556Z,1015.49
2018-08-11T10:57:18.553Z,1015.48
2018-08-11T10:58:18.541Z,1015.50
2018-08-11T10:59:18.532Z,1015.59
2018-08-11T11:00:18.523Z,1015.50
2018-08-11T11:01:18.536Z,1015.64
2018-08-11T11:02:18.502Z,1015.60
2018-08-11T11:03:18.494Z,1015.56
2018-08-11T11:04:18.487Z,1015.60
2018-08-11T11:05:18.488Z,1015.49
2018-08-11T11:06:18.472Z,1015.58
2018-08-11T11:07:18.459Z,1015.52
2018-08-11T11:08:18.468Z,1015.48
2018-08-11T11:09:18.445Z,1015.49
2018-08-11T11:10:18.432Z,1015.56
2018-08-11T11:11:18.422Z,1015.55
2018-08-11T11:12:18.413Z,1015.61
2018-08-11T11:13:18.403Z,1015.64
2018-08-11T11:14:18.409Z,1015.57
2018-08-11T11:15:18.392Z,1015.56
2018-08-11T11:16:18.377Z,1015.65
2018-08-11T11:17:18.377Z,1015.61
2018-08-11T11:18:18.357Z,1015.62
2018-08-11T11:19:18.349Z,1015.56
2018-08-11T11:20:18.337Z,1015.68
2018-08-11T11:21:18.331Z,1015.58
2018-08-11T11:22:18.323Z,1015.54
2018-08-11T11:23:18.307Z,1015.54
2018-08-11T11:24:18.309Z,1015.59
2018-08-11T11:25:18.294Z,1015.56
2018-08-11T11:26:18.285Z,1015.57
2018-08-11T11:27:18.276Z,1015.60
2018-08-11T11:28:18.262Z,1015.57
2018-08-11T11:29:18.252Z,1015.65
2018-08-11T11:30:18.247Z,1015.69
2018-08-11T11:31:18.233Z,1015.57
2018-08-11T11:32:18.226Z,1015.68
2018-08-11T11:33:18.215Z,1015.66
2018-08-11T11:34:18.207Z,1015.74
2018-08-11T11:35:18.200Z,1015.67
2018-08-11T11:36:18.190Z,1015.68
2018-08-11T11:37:18.215Z,1015.65
2018-08-11T11:38:18.169Z,1015.60
2018-08-11T11:39:18.158Z,1015.64
2018-08-11T11:40:18.157Z,1015.60
2018-08-11T11:41:18.149Z,1015.63
2018-08-11T11:42:18.141Z,1015.70
2018-08-11T11:43:18.148Z,1015.82
2018-08-11T11:44:18.113Z,1015.85
2018-08-11T11:45:18.106Z,1015.83
2018-08-11T11:46:18.095Z,1015.70
2018-08-11T11:47:18.178Z,1015.66
2018-08-11T11:48:18.086Z,1015.73
2018-08-11T11:49:18.070Z,1015.73
2018-08-11T11:50:18.064Z,1015.73
2018-08-11T11:51:18.055Z,1015.77
2018-08-11T11:52:18.051Z,1015.69
2018-08-11T11:53:18.033Z,1015.72
2018-08-11T11:54:18.024Z,1015.69
2018-08-11T11:55:18.018Z,1015.66
2018-08-11T11:56:18.011Z,1015.73
2018-08-11T11:57:18.016Z,1015.70
2018-08-11T11:58:17.986Z,1015.78
2018-08-11T11:59:17.978Z,1015.76
2018-08-11T12:00:17.968Z,1015.73
2018-08-11T12:01:17.960Z,1015.83
2018-08-11T12:02:17.958Z,1015.75
2018-08-11T12:03:17.957Z,1015.74
2018-08-11T12:04:17.936Z,1015.70
2018-08-11T12:05:17.928Z,1015.74